createdAt,value
2023-03-21T00:00:03.760Z,1008.86
2023-03-21T00:01:02.042Z,1008.80
2023-03-21T00:02:02.252Z,1008.76
2023-03-21T00:03:03.029Z,1008.80
2023-03-21T00:04:02.603Z,1008.75
2023-03-21T00:05:15.001Z,1008.78
2023-03-21T00:06:04.884Z,1008.75
2023-03-21T00:07:02.986Z,1008.77
2023-03-21T00:08:03.140Z,1008.79
2023-03-21T00:09:03.545Z,1008.70
2023-03-21T00:10:14.346Z,1008.69
2023-03-21T00:11:05.691Z,1008.73
2023-03-21T00:12:03.833Z,1008.78
2023-03-21T00:13:04.543Z,1008.74
2023-03-21T00:14:04.221Z,1008.68
2023-03-21T00:15:04.409Z,1008.70
2023-03-21T00:16:04.571Z,1008.66
2023-03-21T00:17:05.726Z,1008.68
2023-03-21T00:18:05.499Z,1008.65
2023-03-21T00:19:05.027Z,1008.63
2023-03-21T00:20:05.218Z,1008.70
2023-03-21T00:21:37.697Z,1008.67
2023-03-21T00:22:08.771Z,1008.58
2023-03-21T00:23:06.660Z,1008.58
2023-03-21T00:24:05.793Z,1008.60
2023-03-21T00:25:06.538Z,1008.63
2023-03-21T00:26:06.196Z,1008.59
2023-03-21T00:27:33.711Z,1008.58
2023-03-21T00:28:09.495Z,1008.61
2023-03-21T00:29:07.844Z,1008.53
2023-03-21T00:30:06.991Z,1008.57
2023-03-21T00:31:07.999Z,1008.60
2023-03-21T00:32:07.997Z,1008.55
2023-03-21T00:33:21.734Z,1008.55
2023-03-21T00:35:43.955Z,1008.61
2023-03-21T00:36:10.260Z,1008.52
2023-03-21T00:37:08.547Z,1008.48
2023-03-21T00:38:09.364Z,1008.48
2023-03-21T00:39:08.748Z,1008.44
2023-03-21T00:40:16.249Z,1008.43
2023-03-21T00:41:23.247Z,1008.52
2023-03-21T00:42:11.338Z,1008.48
2023-03-21T00:43:09.443Z,1008.49
2023-03-21T00:44:10.502Z,1008.48
2023-03-21T00:45:09.753Z,1008.52
2023-03-21T00:46:11.547Z,1008.51
2023-03-21T00:47:10.050Z,1008.44
2023-03-21T00:48:11.124Z,1008.38
2023-03-21T00:49:10.591Z,1008.37
2023-03-21T00:50:10.510Z,1008.37
2023-03-21T00:51:10.687Z,1008.33
2023-03-21T00:52:20.076Z,1008.29
2023-03-21T00:53:13.108Z,1008.32
2023-03-21T00:54:11.999Z,1008.27
2023-03-21T00:55:11.447Z,1008.23
2023-03-21T00:56:13.499Z,1008.28
2023-03-21T00:57:11.738Z,1008.30
2023-03-21T00:58:11.879Z,1008.25
2023-03-21T00:59:12.998Z,1008.25
2023-03-21T01:00:12.269Z,1008.24
2023-03-21T01:01:12.531Z,1008.29
2023-03-21T01:02:12.670Z,1008.26
2023-03-21T01:03:23.813Z,1008.25
2023-03-21T01:04:15.556Z,1008.22
2023-03-21T01:05:13.276Z,1008.24
2023-03-21T01:06:13.439Z,1008.17
2023-03-21T01:07:14.370Z,1008.23
2023-03-21T01:08:25.118Z,1008.19
2023-03-21T01:09:17.115Z,1008.14
2023-03-21T01:10:14.216Z,1008.19
2023-03-21T01:11:14.361Z,1008.13
2023-03-21T01:12:14.510Z,1008.11
2023-03-21T01:13:14.664Z,1008.09
2023-03-21T01:14:23.564Z,1008.11
2023-03-21T01:15:17.551Z,1008.12
2023-03-21T01:16:15.191Z,1008.19
2023-03-21T01:17:15.396Z,1008.18
2023-03-21T01:18:15.567Z,1008.11
2023-03-21T01:19:26.270Z,1008.04
2023-03-21T01:20:17.924Z,1008.13
2023-03-21T01:21:16.164Z,1008.08
2023-03-21T01:22:16.362Z,1008.09
2023-03-21T01:23:16.565Z,1008.04
2023-03-21T01:24:17.505Z,1008.00
2023-03-21T01:25:22.203Z,1008.07
2023-03-21T01:26:20.007Z,1008.11
2023-03-21T01:27:17.223Z,1007.99
2023-03-21T01:28:19.007Z,1007.97
2023-03-21T01:29:17.608Z,1007.95
2023-03-21T01:30:22.736Z,1007.97
2023-03-21T01:31:20.586Z,1007.93
2023-03-21T01:32:18.092Z,1008.00
2023-03-21T01:33:20.015Z,1007.90
2023-03-21T01:34:18.512Z,1007.93
2023-03-21T01:35:20.375Z,1007.88
2023-03-21T01:36:22.667Z,1007.84
2023-03-21T01:37:20.079Z,1007.87
2023-03-21T01:38:19.238Z,1007.82
2023-03-21T01:39:20.061Z,1007.85
2023-03-21T01:40:19.585Z,1007.85
2023-03-21T01:41:20.343Z,1007.84
2023-03-21T01:42:21.512Z,1007.87
2023-03-21T01:43:21.010Z,1007.86
2023-03-21T01:44:20.306Z,1007.81
2023-03-21T01:45:20.513Z,1007.82
2023-03-21T01:46:20.791Z,1007.84
2023-03-21T01:47:20.949Z,1007.83
2023-03-21T01:48:21.133Z,1007.80
2023-03-21T01:49:21.334Z,1007.85
2023-03-21T01:50:21.522Z,1007.89
2023-03-21T01:51:22.511Z,1007.83
2023-03-21T01:52:35.503Z,1007.79
2023-03-21T01:53:24.152Z,1007.84
2023-03-21T01:54:23.012Z,1007.78
2023-03-21T01:55:22.534Z,1007.87
2023-03-21T01:56:22.690Z,1007.79
2023-03-21T01:57:25.910Z,1007.83
2023-03-21T01:58:23.048Z,1007.81
2023-03-21T01:59:23.185Z,1007.80
2023-03-21T02:00:23.356Z,1007.81
2023-03-21T02:01:23.522Z,1007.81
2023-03-21T02:02:23.711Z,1007.77
2023-03-21T02:03:35.289Z,1007.74
2023-03-21T02:04:26.233Z,1007.74
2023-03-21T02:05:24.341Z,1007.70
2023-03-21T02:06:25.513Z,1007.72
2023-03-21T02:07:25.513Z,1007.74
2023-03-21T02:08:38.127Z,1007.68
2023-03-21T02:09:27.523Z,1007.67
2023-03-21T02:10:25.118Z,1007.62
2023-03-21T02:11:25.282Z,1007.64
2023-03-21T02:12:25.439Z,1007.64
2023-03-21T02:13:25.609Z,1007.61
2023-03-21T02:14:29.321Z,1007.68
2023-03-21T02:15:26.998Z,1007.66
2023-03-21T02:16:26.194Z,1007.55
2023-03-21T02:17:26.381Z,1007.53
2023-03-21T02:18:26.554Z,1007.54
2023-03-21T02:19:34.199Z,1007.50
2023-03-21T02:20:28.889Z,1007.54
2023-03-21T02:21:27.129Z,1007.54
2023-03-21T02:22:27.299Z,1007.46
2023-03-21T02:23:27.446Z,1007.48
2023-03-21T02:24:28.578Z,1007.48
2023-03-21T02:25:29.385Z,1007.51
2023-03-21T02:26:36.151Z,1007.43
2023-03-21T02:27:30.166Z,1007.37
2023-03-21T02:28:28.294Z,1007.41
2023-03-21T02:29:29.523Z,1007.38
2023-03-21T02:30:33.569Z,1007.42
2023-03-21T02:31:30.899Z,1007.43
2023-03-21T02:32:37.354Z,1007.39
2023-03-21T02:33:32.526Z,1007.43
2023-03-21T02:34:30.023Z,1007.37
2023-03-21T02:35:29.536Z,1007.41
2023-03-21T02:36:29.733Z,1007.34
2023-03-21T02:37:37.670Z,1007.37
2023-03-21T02:38:34.532Z,1007.40
2023-03-21T02:39:30.373Z,1007.29
2023-03-21T02:40:30.567Z,1007.38
2023-03-21T02:41:38.256Z,1007.30
2023-03-21T02:42:32.899Z,1007.35
2023-03-21T02:43:31.034Z,1007.27
2023-03-21T02:44:32.090Z,1007.29
2023-03-21T02:45:31.369Z,1007.38
2023-03-21T02:46:41.849Z,1007.30
2023-03-21T02:47:34.084Z,1007.34
2023-03-21T02:48:41.309Z,1007.30
2023-03-21T02:49:34.525Z,1007.30
2023-03-21T02:50:32.131Z,1007.33
2023-03-21T02:51:32.308Z,1007.35
2023-03-21T02:52:39.133Z,1007.32
2023-03-21T02:53:34.633Z,1007.36
2023-03-21T02:54:47.245Z,1007.32
2023-03-21T02:55:34.866Z,1007.34
2023-03-21T02:56:34.036Z,1007.37
2023-03-21T02:57:42.134Z,1007.33
2023-03-21T02:58:35.465Z,1007.27
2023-03-21T02:59:35.778Z,1007.38
2023-03-21T03:00:34.818Z,1007.38
2023-03-21T03:01:34.554Z,1007.34
2023-03-21T03:02:34.094Z,1007.35
2023-03-21T03:03:34.996Z,1007.37
2023-03-21T03:04:35.579Z,1007.37
2023-03-21T03:05:35.577Z,1007.42
2023-03-21T03:06:35.010Z,1007.33
2023-03-21T03:07:36.035Z,1007.35
2023-03-21T03:08:43.288Z,1007.34
2023-03-21T03:09:37.482Z,1007.31
2023-03-21T03:10:36.799Z,1007.32
2023-03-21T03:11:36.543Z,1007.32
2023-03-21T03:12:35.953Z,1007.29
2023-03-21T03:13:36.138Z,1007.32
2023-03-21T03:14:49.813Z,1007.38
2023-03-21T03:15:38.522Z,1007.28
2023-03-21T03:16:37.088Z,1007.23
2023-03-21T03:17:36.882Z,1007.28
2023-03-21T03:18:37.066Z,1007.27
2023-03-21T03:19:49.529Z,1007.25
2023-03-21T03:20:40.361Z,1007.30
2023-03-21T03:21:37.557Z,1007.23
2023-03-21T03:22:37.759Z,1007.24
2023-03-21T03:23:38.916Z,1007.23
2023-03-21T03:24:38.198Z,1007.30
2023-03-21T03:25:42.957Z,1007.26
2023-03-21T03:26:40.620Z,1007.26
2023-03-21T03:27:38.747Z,1007.19
2023-03-21T03:28:38.928Z,1007.11
2023-03-21T03:29:39.134Z,1007.17
2023-03-21T03:30:46.570Z,1007.22
2023-03-21T03:31:41.534Z,1007.20
2023-03-21T03:32:41.035Z,1007.28
2023-03-21T03:33:40.600Z,1007.12
2023-03-21T03:34:40.110Z,1007.13
2023-03-21T03:35:41.053Z,1007.13
2023-03-21T03:36:40.501Z,1007.09
2023-03-21T03:37:41.634Z,1007.03
2023-03-21T03:38:40.786Z,1007.04
2023-03-21T03:39:40.986Z,1007.04
2023-03-21T03:40:41.748Z,1007.02
2023-03-21T03:42:04.308Z,1006.99
2023-03-21T03:42:43.629Z,1007.03
2023-03-21T03:43:41.882Z,1007.06
2023-03-21T03:44:42.081Z,1007.09
2023-03-21T03:45:44.039Z,1007.05
2023-03-21T03:46:43.081Z,1007.13
2023-03-21T03:47:56.042Z,1007.07
2023-03-21T03:48:44.815Z,1007.12
2023-03-21T03:49:43.051Z,1007.07
2023-03-21T03:50:43.592Z,1007.09
2023-03-21T03:51:44.540Z,1007.07
2023-03-21T03:52:55.349Z,1007.03
2023-03-21T03:53:45.675Z,1007.01
2023-03-21T03:54:44.580Z,1007.04
2023-03-21T03:55:43.993Z,1007.03
2023-03-21T03:56:45.097Z,1006.97
2023-03-21T03:57:44.356Z,1007.07
2023-03-21T03:58:46.190Z,1007.02
2023-03-21T03:59:46.568Z,1007.07
2023-03-21T04:00:44.937Z,1007.01
2023-03-21T04:01:45.141Z,1007.05
2023-03-21T04:02:45.336Z,1007.05
2023-03-21T04:03:50.451Z,1007.05
2023-03-21T04:04:47.653Z,1007.07
2023-03-21T04:05:45.791Z,1007.00
2023-03-21T04:06:45.947Z,1007.01
2023-03-21T04:07:48.046Z,1007.03
2023-03-21T04:08:46.274Z,1007.09
2023-03-21T04:09:46.449Z,1007.09
2023-03-21T04:10:48.416Z,1007.04
2023-03-21T04:11:48.051Z,1007.00
2023-03-21T04:12:46.977Z,1007.04
2023-03-21T04:13:47.122Z,1007.00
2023-03-21T04:14:49.051Z,1006.96
2023-03-21T04:15:48.597Z,1006.92
2023-03-21T04:16:47.634Z,1006.90
2023-03-21T04:17:47.790Z,1006.91
2023-03-21T04:18:47.950Z,1006.89
2023-03-21T04:19:50.809Z,1006.90
2023-03-21T04:20:48.958Z,1006.86
2023-03-21T04:21:49.558Z,1006.97
2023-03-21T04:22:48.550Z,1006.98
2023-03-21T04:23:48.700Z,1006.88
2023-03-21T04:24:48.848Z,1006.93
2023-03-21T04:25:56.298Z,1006.96
2023-03-21T04:26:51.604Z,1006.96
2023-03-21T04:27:49.319Z,1006.99
2023-03-21T04:28:49.461Z,1007.02
2023-03-21T04:29:49.601Z,1006.92
2023-03-21T04:31:01.314Z,1006.90
2023-03-21T04:31:52.011Z,1006.95
2023-03-21T04:32:50.134Z,1006.97
2023-03-21T04:33:50.276Z,1006.97
2023-03-21T04:34:50.427Z,1006.99
2023-03-21T04:35:51.603Z,1007.00
2023-03-21T04:36:51.615Z,1007.09
2023-03-21T04:37:50.866Z,1007.02
2023-03-21T04:38:51.560Z,1007.02
2023-03-21T04:39:51.220Z,1007.01
2023-03-21T04:40:51.925Z,1007.07
2023-03-21T04:41:51.580Z,1007.04
2023-03-21T04:42:51.736Z,1007.07
2023-03-21T04:43:52.544Z,1007.03
2023-03-21T04:44:53.101Z,1006.97
2023-03-21T04:45:52.282Z,1007.07
2023-03-21T04:46:52.439Z,1007.06
2023-03-21T04:47:53.618Z,1007.09
2023-03-21T04:48:52.796Z,1007.05
2023-03-21T04:49:52.979Z,1007.03
2023-03-21T04:50:53.149Z,1007.04
2023-03-21T04:51:53.310Z,1007.00
2023-03-21T04:52:53.457Z,1007.05
2023-03-21T04:53:54.103Z,1007.02
2023-03-21T04:54:53.749Z,1007.03
2023-03-21T04:55:55.523Z,1007.01
2023-03-21T04:56:55.045Z,1007.02
2023-03-21T04:57:54.294Z,1007.14
2023-03-21T04:58:54.428Z,1007.00
2023-03-21T04:59:54.580Z,1007.15
2023-03-21T05:00:54.823Z,1007.06
2023-03-21T05:01:55.568Z,1007.05
2023-03-21T05:02:55.103Z,1007.07
2023-03-21T05:03:55.306Z,1007.02
2023-03-21T05:04:56.059Z,1007.00
2023-03-21T05:05:55.698Z,1007.00
2023-03-21T05:06:56.123Z,1007.06
2023-03-21T05:07:56.025Z,1006.99
2023-03-21T05:08:56.159Z,1007.03
2023-03-21T05:09:56.292Z,1006.98
2023-03-21T05:10:56.572Z,1006.92
2023-03-21T05:11:57.631Z,1006.98
2023-03-21T05:12:56.770Z,1007.01
2023-03-21T05:13:58.447Z,1007.00
2023-03-21T05:14:57.077Z,1006.93
2023-03-21T05:15:58.111Z,1006.93
2023-03-21T05:16:57.467Z,1006.90
2023-03-21T05:17:57.534Z,1006.92
2023-03-21T05:18:57.693Z,1006.91
2023-03-21T05:19:57.876Z,1006.90
2023-03-21T05:20:58.029Z,1006.90
2023-03-21T05:21:58.175Z,1006.82
2023-03-21T05:22:58.338Z,1006.87
2023-03-21T05:23:58.578Z,1006.84
2023-03-21T05:24:59.610Z,1006.78
2023-03-21T05:25:59.574Z,1006.78
2023-03-21T05:27:01.545Z,1006.84
2023-03-21T05:28:00.125Z,1006.74
2023-03-21T05:28:59.277Z,1006.73
2023-03-21T05:29:59.439Z,1006.81
2023-03-21T05:31:00.595Z,1006.77
2023-03-21T05:32:00.566Z,1006.68
2023-03-21T05:33:00.569Z,1006.67
2023-03-21T05:34:00.133Z,1006.65
2023-03-21T05:35:01.072Z,1006.66
2023-03-21T05:36:01.140Z,1006.65
2023-03-21T05:37:00.686Z,1006.55
2023-03-21T05:38:00.819Z,1006.51
2023-03-21T05:39:01.124Z,1006.53
2023-03-21T05:40:02.115Z,1006.55
2023-03-21T05:41:01.357Z,1006.50
2023-03-21T05:42:02.072Z,1006.47
2023-03-21T05:43:01.734Z,1006.51
2023-03-21T05:44:01.905Z,1006.48
2023-03-21T05:45:02.633Z,1006.49
2023-03-21T05:46:02.299Z,1006.53
2023-03-21T05:47:02.456Z,1006.51
2023-03-21T05:48:02.689Z,1006.47
2023-03-21T05:49:03.575Z,1006.46
2023-03-21T05:50:03.087Z,1006.45
2023-03-21T05:51:03.241Z,1006.44
2023-03-21T05:52:04.078Z,1006.32
2023-03-21T05:53:04.436Z,1006.35
2023-03-21T05:54:04.611Z,1006.29
2023-03-21T05:55:03.999Z,1006.32
2023-03-21T05:56:04.138Z,1006.31
2023-03-21T05:57:05.078Z,1006.35
2023-03-21T05:58:04.505Z,1006.34
2023-03-21T05:59:05.574Z,1006.29
2023-03-21T06:00:04.824Z,1006.33
2023-03-21T06:01:06.582Z,1006.37
2023-03-21T06:02:05.188Z,1006.34
2023-03-21T06:03:05.405Z,1006.35
2023-03-21T06:04:05.622Z,1006.38
2023-03-21T06:05:05.766Z,1006.36
2023-03-21T06:06:06.948Z,1006.36
2023-03-21T06:07:07.048Z,1006.41
2023-03-21T06:08:06.171Z,1006.40
2023-03-21T06:09:07.148Z,1006.41
2023-03-21T06:10:06.532Z,1006.39
2023-03-21T06:11:06.712Z,1006.35
2023-03-21T06:12:08.954Z,1006.43
2023-03-21T06:13:07.055Z,1006.37
2023-03-21T06:14:07.220Z,1006.48
2023-03-21T06:15:07.393Z,1006.46
2023-03-21T06:16:07.624Z,1006.51
2023-03-21T06:17:07.786Z,1006.44
2023-03-21T06:18:07.949Z,1006.41
2023-03-21T06:19:08.110Z,1006.48
2023-03-21T06:20:08.282Z,1006.35
2023-03-21T06:21:08.482Z,1006.39
2023-03-21T06:22:08.628Z,1006.41
2023-03-21T06:23:09.621Z,1006.37
2023-03-21T06:24:08.889Z,1006.33
2023-03-21T06:25:09.032Z,1006.29
2023-03-21T06:26:10.105Z,1006.28
2023-03-21T06:27:09.384Z,1006.30
2023-03-21T06:28:09.548Z,1006.34
2023-03-21T06:29:09.700Z,1006.27
2023-03-21T06:30:09.861Z,1006.31
2023-03-21T06:31:10.172Z,1006.33
2023-03-21T06:32:11.089Z,1006.30
2023-03-21T06:33:10.348Z,1006.28
2023-03-21T06:34:10.504Z,1006.24
2023-03-21T06:35:10.668Z,1006.26
2023-03-21T06:36:11.590Z,1006.20
2023-03-21T06:37:11.004Z,1006.24
2023-03-21T06:38:12.092Z,1006.22
2023-03-21T06:39:11.337Z,1006.14
2023-03-21T06:40:11.500Z,1006.11
2023-03-21T06:41:12.624Z,1006.13
2023-03-21T06:42:11.873Z,1006.12
2023-03-21T06:43:12.041Z,1006.05
2023-03-21T06:44:12.635Z,1006.05
2023-03-21T06:45:12.429Z,1006.08
2023-03-21T06:46:12.633Z,1005.99
2023-03-21T06:47:13.648Z,1006.09
2023-03-21T06:48:13.650Z,1006.03
2023-03-21T06:49:13.205Z,1005.99
2023-03-21T06:50:13.401Z,1006.01
2023-03-21T06:51:13.630Z,1006.00
2023-03-21T06:52:13.822Z,1005.94
2023-03-21T06:53:14.660Z,1006.00
2023-03-21T06:54:14.194Z,1005.98
2023-03-21T06:55:14.956Z,1005.98
2023-03-21T06:56:16.106Z,1005.92
2023-03-21T06:57:14.749Z,1005.88
2023-03-21T06:58:14.933Z,1005.94
2023-03-21T06:59:15.102Z,1005.93
2023-03-21T07:00:15.365Z,1005.94
2023-03-21T07:01:15.585Z,1005.86
2023-03-21T07:02:15.759Z,1005.96
2023-03-21T07:03:15.955Z,1005.87
2023-03-21T07:04:16.654Z,1005.91
2023-03-21T07:05:16.341Z,1005.87
2023-03-21T07:06:16.501Z,1005.84
2023-03-21T07:07:16.723Z,1005.82
2023-03-21T07:08:16.902Z,1005.87
2023-03-21T07:09:17.087Z,1005.89
2023-03-21T07:10:17.303Z,1005.83
2023-03-21T07:11:18.592Z,1005.87
2023-03-21T07:12:18.590Z,1005.89
2023-03-21T07:13:18.635Z,1005.88
2023-03-21T07:14:17.904Z,1005.93
2023-03-21T07:15:18.068Z,1005.93
2023-03-21T07:16:18.345Z,1005.90
2023-03-21T07:17:18.466Z,1006.03
2023-03-21T07:18:18.656Z,1005.98
2023-03-21T07:19:19.643Z,1006.02
2023-03-21T07:20:19.078Z,1006.02
2023-03-21T07:21:19.283Z,1006.05
2023-03-21T07:22:19.667Z,1006.00
2023-03-21T07:23:19.591Z,1006.07
2023-03-21T07:24:19.772Z,1006.00
2023-03-21T07:25:20.739Z,1006.06
2023-03-21T07:26:20.203Z,1006.11
2023-03-21T07:27:20.409Z,1006.09
2023-03-21T07:28:20.585Z,1006.08
2023-03-21T07:29:20.812Z,1006.05
2023-03-21T07:30:22.599Z,1006.16
2023-03-21T07:31:21.185Z,1006.07
2023-03-21T07:32:21.317Z,1006.20
2023-03-21T07:33:21.523Z,1006.12
2023-03-21T07:34:21.745Z,1006.09
2023-03-21T07:35:21.951Z,1006.11
2023-03-21T07:36:22.161Z,1006.14
2023-03-21T07:37:23.138Z,1006.18
2023-03-21T07:38:23.599Z,1006.23
2023-03-21T07:39:22.813Z,1006.16
2023-03-21T07:40:23.674Z,1006.19
2023-03-21T07:41:23.252Z,1006.29
2023-03-21T07:42:23.978Z,1006.24
2023-03-21T07:43:23.645Z,1006.29
2023-03-21T07:44:23.864Z,1006.30
2023-03-21T07:45:24.032Z,1006.33
2023-03-21T07:46:24.270Z,1006.33
2023-03-21T07:47:24.408Z,1006.33
2023-03-21T07:48:24.576Z,1006.31
2023-03-21T07:49:24.794Z,1006.33
2023-03-21T07:50:24.970Z,1006.35
2023-03-21T07:51:28.600Z,1006.39
2023-03-21T07:52:25.337Z,1006.35
2023-03-21T07:53:25.497Z,1006.41
2023-03-21T07:54:25.675Z,1006.42
2023-03-21T07:55:25.856Z,1006.41
2023-03-21T07:56:26.056Z,1006.43
2023-03-21T07:57:27.151Z,1006.41
2023-03-21T07:58:26.455Z,1006.45
2023-03-21T07:59:26.639Z,1006.47
2023-03-21T08:00:26.796Z,1006.51
2023-03-21T08:01:26.992Z,1006.41
2023-03-21T08:02:27.238Z,1006.50
2023-03-21T08:03:28.135Z,1006.53
2023-03-21T08:04:27.657Z,1006.53
2023-03-21T08:05:28.610Z,1006.61
2023-03-21T08:06:28.642Z,1006.52
2023-03-21T08:07:28.035Z,1006.53
2023-03-21T08:08:29.102Z,1006.55
2023-03-21T08:09:30.699Z,1006.51
2023-03-21T08:10:29.104Z,1006.52
2023-03-21T08:11:30.103Z,1006.53
2023-03-21T08:12:29.618Z,1006.51
2023-03-21T08:13:29.169Z,1006.47
2023-03-21T08:14:29.972Z,1006.48
2023-03-21T08:15:29.455Z,1006.40
2023-03-21T08:16:29.648Z,1006.45
2023-03-21T08:17:30.651Z,1006.44
2023-03-21T08:18:29.938Z,1006.37
2023-03-21T08:19:30.101Z,1006.33
2023-03-21T08:20:30.268Z,1006.36
2023-03-21T08:21:31.149Z,1006.36
2023-03-21T08:22:30.574Z,1006.37
2023-03-21T08:23:30.788Z,1006.39
2023-03-21T08:24:31.014Z,1006.23
2023-03-21T08:25:31.182Z,1006.30
2023-03-21T08:26:32.152Z,1006.29
2023-03-21T08:27:32.110Z,1006.31
2023-03-21T08:28:31.738Z,1006.25
2023-03-21T08:29:31.910Z,1006.21
2023-03-21T08:30:32.173Z,1006.19
2023-03-21T08:31:33.615Z,1006.21
2023-03-21T08:32:32.483Z,1006.13
2023-03-21T08:33:32.617Z,1006.13
2023-03-21T08:34:32.736Z,1006.08
2023-03-21T08:35:32.953Z,1006.11
2023-03-21T08:36:33.060Z,1005.97
2023-03-21T08:37:34.164Z,1006.01
2023-03-21T08:38:34.152Z,1006.04
2023-03-21T08:39:34.157Z,1005.98
2023-03-21T08:40:33.654Z,1006.01
2023-03-21T08:41:34.174Z,1005.88
2023-03-21T08:42:33.950Z,1005.98
2023-03-21T08:43:35.484Z,1005.97
2023-03-21T08:44:35.117Z,1005.97
2023-03-21T08:45:34.351Z,1005.92
2023-03-21T08:46:34.555Z,1005.87
2023-03-21T08:47:34.680Z,1005.84
2023-03-21T08:48:34.866Z,1005.78
2023-03-21T08:49:35.043Z,1005.82
2023-03-21T08:50:35.186Z,1005.82
2023-03-21T08:51:36.160Z,1005.74
2023-03-21T08:52:35.670Z,1005.79
2023-03-21T08:53:35.696Z,1005.72
2023-03-21T08:54:37.485Z,1005.78
2023-03-21T08:55:36.879Z,1005.76
2023-03-21T08:56:38.141Z,1005.73
2023-03-21T08:57:36.516Z,1005.72
2023-03-21T08:58:37.567Z,1005.74
2023-03-21T08:59:37.633Z,1005.64
2023-03-21T09:00:36.883Z,1005.69
2023-03-21T09:01:37.160Z,1005.67
2023-03-21T09:02:37.300Z,1005.54
2023-03-21T09:03:38.186Z,1005.58
2023-03-21T09:04:38.751Z,1005.49
2023-03-21T09:05:38.338Z,1005.48
2023-03-21T09:06:39.645Z,1005.47
2023-03-21T09:07:38.314Z,1005.38
2023-03-21T09:08:38.520Z,1005.43
2023-03-21T09:09:38.709Z,1005.40
2023-03-21T09:10:38.938Z,1005.41
2023-03-21T09:11:39.124Z,1005.38
2023-03-21T09:12:39.329Z,1005.30
2023-03-21T09:13:39.536Z,1005.35
2023-03-21T09:14:39.720Z,1005.37
2023-03-21T09:15:40.357Z,1005.36
2023-03-21T09:16:40.070Z,1005.40
2023-03-21T09:17:40.245Z,1005.41
2023-03-21T09:18:40.677Z,1005.37
2023-03-21T09:19:40.622Z,1005.42
2023-03-21T09:20:41.673Z,1005.40
2023-03-21T09:21:43.128Z,1005.35
2023-03-21T09:22:42.769Z,1005.40
2023-03-21T09:23:42.424Z,1005.43
2023-03-21T09:24:42.137Z,1005.35
2023-03-21T09:25:41.789Z,1005.41
2023-03-21T09:26:43.626Z,1005.43
2023-03-21T09:27:43.689Z,1005.34
2023-03-21T09:28:42.291Z,1005.41
2023-03-21T09:29:42.445Z,1005.33
2023-03-21T09:30:42.622Z,1005.29
2023-03-21T09:31:44.013Z,1005.42
2023-03-21T09:32:42.938Z,1005.35
2023-03-21T09:33:43.680Z,1005.43
2023-03-21T09:34:43.326Z,1005.45
2023-03-21T09:35:43.538Z,1005.39
2023-03-21T09:36:44.643Z,1005.46
2023-03-21T09:37:44.669Z,1005.41
2023-03-21T09:38:44.075Z,1005.44
2023-03-21T09:39:44.251Z,1005.41
2023-03-21T09:40:44.477Z,1005.53
2023-03-21T09:41:44.649Z,1005.52
2023-03-21T09:42:44.801Z,1005.55
2023-03-21T09:43:44.962Z,1005.57
2023-03-21T09:44:45.149Z,1005.61
2023-03-21T09:45:45.315Z,1005.63
2023-03-21T09:46:45.655Z,1005.59
2023-03-21T09:47:46.643Z,1005.63
2023-03-21T09:48:54.437Z,1005.65
2023-03-21T09:49:47.909Z,1005.64
2023-03-21T09:50:46.213Z,1005.66
2023-03-21T09:51:48.138Z,1005.70
2023-03-21T09:52:47.144Z,1005.78
2023-03-21T09:53:47.175Z,1005.67
2023-03-21T09:54:46.713Z,1005.65
2023-03-21T09:55:46.904Z,1005.71
2023-03-21T09:56:47.083Z,1005.65
2023-03-21T09:57:47.245Z,1005.64
2023-03-21T09:58:47.394Z,1005.67
2023-03-21T09:59:47.689Z,1005.72
2023-03-21T10:00:47.736Z,1005.66
2023-03-21T10:01:47.930Z,1005.62
2023-03-21T10:02:48.646Z,1005.66
2023-03-21T10:03:48.327Z,1005.66
2023-03-21T10:04:48.556Z,1005.61
2023-03-21T10:05:48.624Z,1005.62
2023-03-21T10:06:48.807Z,1005.63
2023-03-21T10:07:49.010Z,1005.68
2023-03-21T10:08:50.133Z,1005.67
2023-03-21T10:09:50.138Z,1005.61
2023-03-21T10:10:51.632Z,1005.57
2023-03-21T10:11:49.762Z,1005.62
2023-03-21T10:12:49.944Z,1005.68
2023-03-21T10:13:50.114Z,1005.64
2023-03-21T10:14:51.181Z,1005.58
2023-03-21T10:15:50.494Z,1005.67
2023-03-21T10:16:50.732Z,1005.61
2023-03-21T10:17:52.135Z,1005.65
2023-03-21T10:18:51.036Z,1005.58
2023-03-21T10:19:51.262Z,1005.60
2023-03-21T10:20:51.406Z,1005.61
2023-03-21T10:22:06.973Z,1005.63
2023-03-21T10:22:53.840Z,1005.67
2023-03-21T10:23:52.714Z,1005.66
2023-03-21T10:24:52.685Z,1005.65
2023-03-21T10:25:53.251Z,1005.64
2023-03-21T10:26:53.140Z,1005.58
2023-03-21T10:27:52.710Z,1005.64
2023-03-21T10:28:53.777Z,1005.65
2023-03-21T10:29:55.138Z,1005.62
2023-03-21T10:30:53.253Z,1005.65
2023-03-21T10:31:53.477Z,1005.67
2023-03-21T10:32:53.737Z,1005.66
2023-03-21T10:33:54.681Z,1005.68
2023-03-21T10:35:54.280Z,1005.70
2023-03-21T10:36:54.436Z,1005.70
2023-03-21T10:37:54.594Z,1005.64
2023-03-21T10:38:54.793Z,1005.72
2023-03-21T10:39:56.638Z,1005.67
2023-03-21T10:40:55.145Z,1005.65
2023-03-21T10:41:55.320Z,1005.58
2023-03-21T10:42:55.488Z,1005.56
2023-03-21T10:43:55.645Z,1005.49
2023-03-21T10:44:55.840Z,1005.63
2023-03-21T10:45:56.143Z,1005.62
2023-03-21T10:46:56.581Z,1005.61
2023-03-21T10:47:57.307Z,1005.56
2023-03-21T10:48:57.273Z,1005.53
2023-03-21T10:50:07.345Z,1005.53
2023-03-21T10:50:59.698Z,1005.52
2023-03-21T10:51:57.717Z,1005.57
2023-03-21T10:52:57.698Z,1005.47
2023-03-21T10:53:57.497Z,1005.50
2023-03-21T10:54:57.664Z,1005.49
2023-03-21T10:55:57.873Z,1005.39
2023-03-21T10:56:58.047Z,1005.47
2023-03-21T10:57:59.144Z,1005.40
2023-03-21T10:58:59.647Z,1005.36
2023-03-21T10:59:58.543Z,1005.33
2023-03-21T11:00:58.738Z,1005.33
2023-03-21T11:02:00.204Z,1005.37
2023-03-21T11:02:59.114Z,1005.35
2023-03-21T11:03:59.292Z,1005.28
2023-03-21T11:04:59.462Z,1005.35
2023-03-21T11:05:59.625Z,1005.22
2023-03-21T11:07:00.639Z,1005.22
2023-03-21T11:08:00.200Z,1005.21
2023-03-21T11:09:00.119Z,1005.13
2023-03-21T11:10:00.262Z,1005.12
2023-03-21T11:11:00.443Z,1005.02
2023-03-21T11:12:01.208Z,1004.98
2023-03-21T11:13:00.722Z,1005.00
2023-03-21T11:14:02.653Z,1004.93
2023-03-21T11:15:01.120Z,1004.87
2023-03-21T11:16:01.273Z,1004.88
2023-03-21T11:17:01.506Z,1004.78
2023-03-21T11:18:02.194Z,1004.65
2023-03-21T11:19:01.884Z,1004.63
2023-03-21T11:20:02.014Z,1004.59
2023-03-21T11:21:02.141Z,1004.64
2023-03-21T11:22:02.306Z,1004.54
2023-03-21T11:23:02.473Z,1004.56
2023-03-21T11:24:02.634Z,1004.48
2023-03-21T11:25:03.232Z,1004.50
2023-03-21T11:26:03.002Z,1004.45
2023-03-21T11:27:03.176Z,1004.50
2023-03-21T11:28:03.322Z,1004.55
2023-03-21T11:29:04.209Z,1004.49
2023-03-21T11:30:04.674Z,1004.53
2023-03-21T11:31:03.986Z,1004.51
2023-03-21T11:32:05.526Z,1004.43
2023-03-21T11:33:04.293Z,1004.42
2023-03-21T11:34:04.489Z,1004.41
2023-03-21T11:35:04.735Z,1004.36
2023-03-21T11:36:05.589Z,1004.26
2023-03-21T11:37:05.728Z,1004.26
2023-03-21T11:38:06.175Z,1004.25
2023-03-21T11:39:06.180Z,1004.17
2023-03-21T11:40:05.592Z,1004.19
2023-03-21T11:41:05.753Z,1004.14
2023-03-21T11:42:05.930Z,1004.11
2023-03-21T11:43:06.706Z,1004.08
2023-03-21T11:44:07.670Z,1004.06
2023-03-21T11:45:06.521Z,1003.97
2023-03-21T11:46:06.748Z,1004.00
2023-03-21T11:47:07.671Z,1003.96
2023-03-21T11:48:07.086Z,1003.87
2023-03-21T11:49:07.298Z,1003.87
2023-03-21T11:50:08.166Z,1003.85
2023-03-21T11:51:08.671Z,1003.86
2023-03-21T11:52:08.681Z,1003.80
2023-03-21T11:53:08.126Z,1003.80
2023-03-21T11:54:08.328Z,1003.75
2023-03-21T11:55:08.526Z,1003.77
2023-03-21T11:56:08.735Z,1003.73
2023-03-21T11:57:08.927Z,1003.71
2023-03-21T11:58:14.594Z,1003.61
2023-03-21T11:59:11.321Z,1003.63
2023-03-21T12:00:10.206Z,1003.63
2023-03-21T12:01:09.614Z,1003.66
2023-03-21T12:02:09.822Z,1003.58
2023-03-21T12:03:10.534Z,1003.57
2023-03-21T12:04:10.244Z,1003.58
2023-03-21T12:05:10.333Z,1003.58
2023-03-21T12:06:11.169Z,1003.49
2023-03-21T12:07:10.697Z,1003.47
2023-03-21T12:08:10.872Z,1003.40
2023-03-21T12:09:11.679Z,1003.38